Wetterdaten: Woche 27.03.23 - 02.04.23 (KW13)
Datum Zeit Temp. Aussen Temp. o. S. Temp +5cm Feuchte Auss Luftdruck Regen Sonnenschein Regendauer Solar Windben Empfang
27.03.2023 00:00 4,3 C 3,3 C 0,5 C 79 % 1012,0 hPa 0,0 l/m 0,00 h 0,00 h 0 W/m 15,4 km/h (3 Bft) 100,46 %
27.03.2023 01:00 3,5 C 2,7 C -0,5 C 83 % 1013,2 hPa 0,0 l/m 0,00 h 0,00 h 0 W/m 12,4 km/h (3 Bft) 97,64 %
27.03.2023 02:00 3,0 C 2,1 C -0,9 C 85 % 1014,3 hPa 0,0 l/m 0,00 h 0,00 h 0 W/m 7,6 km/h (2 Bft) 95,31 %
27.03.2023 03:00 2,2 C 1,2 C -1,6 C 88 % 1015,1 hPa 0,0 l/m 0,00 h 0,00 h 0 W/m 6,5 km/h (2 Bft) 97,73 %
27.03.2023 04:00 1,7 C 0,9 C -1,9 C 89 % 1015,9 hPa 0,0 l/m 0,00 h 0,00 h 0 W/m 6,2 km/h (2 Bft) 95,20 %
27.03.2023 05:00 1,2 C 0,4 C -2,2 C 90 % 1016,7 hPa 0,0 l/m 0,00 h 0,00 h 0 W/m 3,9 km/h (1 Bft) 98,92 %
27.03.2023 06:00 1,2 C 0,5 C -2,1 C 92 % 1017,5 hPa 0,0 l/m 0,00 h 0,00 h 0 W/m 3,0 km/h (1 Bft) 93,83 %
27.03.2023 07:00 1,6 C 1,2 C -1,6 C 93 % 1018,4 hPa 0,0 l/m 0,00 h 0,00 h 10 W/m 6,2 km/h (2 Bft) 96,16 %
27.03.2023 08:00 2,3 C 2,1 C -0,8 C 93 % 1019,1 hPa 0,2 l/m 0,00 h 0,00 h 36 W/m 12,9 km/h (3 Bft) 95,73 %
27.03.2023 09:00 3,3 C 3,9 C 0,3 C 92 % 1019,8 hPa 0,0 l/m 0,33 h 0,00 h 144 W/m 13,4 km/h (3 Bft) 94,00 %
27.03.2023 10:00 5,5 C 9,2 C 2,6 C 82 % 1020,4 hPa 0,0 l/m 0,73 h 0,00 h 341 W/m 21,7 km/h (4 Bft) 91,05 %
27.03.2023 11:00 5,9 C 7,3 C 3,3 C 76 % 1021,0 hPa 0,0 l/m 0,17 h 0,00 h 220 W/m 20,1 km/h (4 Bft) 79,36 %
27.03.2023 12:00 6,8 C 9,0 C 4,9 C 71 % 1021,2 hPa 0,0 l/m 0,27 h 0,00 h 320 W/m 19,7 km/h (3 Bft) 93,91 %
27.03.2023 13:00 6,0 C 9,3 C 2,6 C 81 % 1022,0 hPa 0,0 l/m 0,60 h 0,07 h 519 W/m 21,6 km/h (4 Bft) 96,09 %
27.03.2023 14:00 7,1 C 10,4 C 2,9 C 77 % 1022,2 hPa 0,2 l/m 0,47 h 0,13 h 380 W/m 15,8 km/h (3 Bft) 98,58 %
27.03.2023 15:00 7,5 C 9,4 C 3,6 C 70 % 1022,4 hPa 0,4 l/m 0,50 h 0,00 h 410 W/m 26,8 km/h (4 Bft) 95,87 %
27.03.2023 16:00 6,3 C 7,9 C 2,4 C 77 % 1022,8 hPa 0,0 l/m 0,50 h 0,17 h 329 W/m 20,3 km/h (4 Bft) 96,37 %
27.03.2023 17:00 6,0 C 6,7 C 2,1 C 82 % 1023,2 hPa 0,0 l/m 0,40 h 0,13 h 165 W/m 16,1 km/h (3 Bft) 97,51 %
27.03.2023 18:00 6,6 C 7,1 C 2,9 C 77 % 1023,6 hPa 0,0 l/m 0,80 h 0,10 h 161 W/m 19,2 km/h (3 Bft) 97,21 %
27.03.2023 19:00 5,8 C 5,3 C 1,8 C 75 % 1024,4 hPa 0,0 l/m 0,20 h 0,00 h 21 W/m 19,6 km/h (3 Bft) 98,15 %
27.03.2023 20:00 4,9 C 4,0 C 0,6 C 77 % 1024,9 hPa 0,0 l/m 0,00 h 0,00 h 0 W/m 9,0 km/h (2 Bft) 97,59 %
27.03.2023 21:00 3,8 C 2,9 C -0,5 C 83 % 1025,5 hPa 0,0 l/m 0,00 h 0,00 h 0 W/m 6,0 km/h (2 Bft) 95,92 %
27.03.2023 22:00 3,2 C 2,3 C -0,9 C 84 % 1025,8 hPa 0,0 l/m 0,00 h 0,00 h 0 W/m 4,7 km/h (1 Bft) 98,41 %
27.03.2023 23:00 2,4 C 1,4 C -1,8 C 86 % 1026,1 hPa 0,0 l/m 0,00 h 0,00 h 0 W/m 3,7 km/h (1 Bft) 97,97 %
28.03.2023 00:00 1,7 C 0,8 C -2,4 C 87 % 1026,5 hPa 0,0 l/m 0,00 h 0,00 h 0 W/m 3,2 km/h (1 Bft) 97,24 %
28.03.2023 01:00 1,1 C 0,0 C -3,1 C 88 % 1026,9 hPa 0,0 l/m 0,00 h 0,00 h 0 W/m 1,3 km/h (1 Bft) 95,29 %
28.03.2023 02:00 0,7 C -0,1 C -3,2 C 90 % 1027,2 hPa 0,0 l/m 0,00 h 0,00 h 0 W/m 2,4 km/h (1 Bft) 96,89 %
28.03.2023 03:00 0,4 C -0,8 C -3,6 C 90 % 1027,1 hPa 0,0 l/m 0,00 h 0,00 h 0 W/m 0,6 km/h (0 Bft) 95,23 %
28.03.2023 04:00 -0,0 C -1,1 C -3,9 C 91 % 1026,9 hPa 0,0 l/m 0,00 h 0,00 h 0 W/m 1,3 km/h (1 Bft) 97,48 %
28.03.2023 05:00 -0,2 C -1,1 C -3,6 C 92 % 1026,9 hPa 0,0 l/m 0,00 h 0,00 h 0 W/m 3,5 km/h (1 Bft) 95,53 %
28.03.2023 06:00 -0,5 C -1,7 C -4,3 C 92 % 1027,1 hPa 0,0 l/m 0,00 h 0,00 h 0 W/m 0,3 km/h (0 Bft) 96,41 %
28.03.2023 07:00 -1,1 C -2,2 C -4,9 C 92 % 1027,2 hPa 0,0 l/m 0,00 h 0,00 h 12 W/m 0,0 km/h (0 Bft) 97,43 %
28.03.2023 08:00 -0,4 C -0,4 C -3,4 C 93 % 1027,6 hPa 0,0 l/m 0,00 h 0,00 h 34 W/m 2,9 km/h (1 Bft) 96,32 %
28.03.2023 09:00 1,8 C 3,1 C -1,2 C 93 % 1027,8 hPa 0,2 l/m 0,53 h 0,00 h 166 W/m 8,4 km/h (2 Bft) 95,66 %
28.03.2023 10:00 5,2 C 10,7 C 2,0 C 81 % 1028,1 hPa 0,0 l/m 0,97 h 0,00 h 369 W/m 13,4 km/h (3 Bft) 98,39 %
28.03.2023 11:00 6,8 C 10,6 C 4,9 C 69 % 1027,8 hPa 0,0 l/m 1,00 h 0,00 h 444 W/m 14,7 km/h (3 Bft) 97,86 %
28.03.2023 12:00 7,8 C 11,5 C 6,4 C 61 % 1027,3 hPa 0,0 l/m 1,00 h 0,00 h 490 W/m 18,2 km/h (3 Bft) 97,80 %
28.03.2023 13:00 8,1 C 9,9 C 5,1 C 60 % 1026,5 hPa 0,0 l/m 0,90 h 0,00 h 445 W/m 19,5 km/h (3 Bft) 99,43 %
28.03.2023 14:00 9,4 C 13,7 C 5,6 C 56 % 1025,5 hPa 0,0 l/m 1,00 h 0,00 h 566 W/m 19,8 km/h (4 Bft) 95,10 %
28.03.2023 15:00 9,6 C 11,2 C 5,9 C 54 % 1024,6 hPa 0,0 l/m 1,00 h 0,00 h 401 W/m 19,9 km/h (4 Bft) 97,37 %
28.03.2023 16:00 10,6 C 12,9 C 6,6 C 51 % 1023,7 hPa 0,0 l/m 1,00 h 0,00 h 463 W/m 20,0 km/h (4 Bft) 97,16 %
28.03.2023 17:00 10,4 C 10,7 C 6,1 C 53 % 1022,5 hPa 0,0 l/m 0,50 h 0,00 h 190 W/m 16,4 km/h (3 Bft) 96,84 %
28.03.2023 18:00 10,0 C 9,7 C 5,5 C 55 % 1021,6 hPa 0,0 l/m 0,10 h 0,00 h 93 W/m 12,0 km/h (2 Bft) 98,26 %
28.03.2023 19:00 9,4 C 8,4 C 4,7 C 60 % 1021,4 hPa 0,0 l/m 0,00 h 0,00 h 18 W/m 7,4 km/h (2 Bft) 94,07 %
28.03.2023 20:00 8,8 C 7,8 C 4,1 C 62 % 1021,3 hPa 0,0 l/m 0,00 h 0,03 h 0 W/m 21,8 km/h (4 Bft) 97,56 %
28.03.2023 21:00 7,0 C 5,8 C 1,6 C 77 % 1021,5 hPa 0,2 l/m 0,00 h 0,83 h 0 W/m 22,4 km/h (4 Bft) 96,77 %
28.03.2023 22:00 5,7 C 5,0 C 0,6 C 87 % 1021,0 hPa 0,2 l/m 0,00 h 0,30 h 0 W/m 10,4 km/h (2 Bft) 97,44 %
28.03.2023 23:00 5,4 C 5,0 C 0,6 C 89 % 1020,2 hPa 0,0 l/m 0,00 h 0,00 h 0 W/m 11,3 km/h (2 Bft) 96,66 %
29.03.2023 00:00 5,3 C 4,6 C 0,6 C 90 % 1019,5 hPa 0,0 l/m 0,00 h 0,00 h 0 W/m 15,1 km/h (3 Bft) 97,08 %
29.03.2023 01:00 5,2 C 4,4 C 1,1 C 91 % 1018,7 hPa 0,0 l/m 0,00 h 0,00 h 0 W/m 15,5 km/h (3 Bft) 97,24 %
29.03.2023 02:00 5,2 C 4,6 C 1,1 C 91 % 1017,9 hPa 0,0 l/m 0,00 h 0,00 h 0 W/m 14,7 km/h (3 Bft) 96,67 %
29.03.2023 03:00 5,4 C 5,0 C 1,6 C 90 % 1017,3 hPa 0,0 l/m 0,00 h 0,00 h 0 W/m 14,7 km/h (3 Bft) 96,78 %
29.03.2023 04:00 5,6 C 5,0 C 1,7 C 89 % 1016,9 hPa 0,0 l/m 0,00 h 0,00 h 0 W/m 13,3 km/h (3 Bft) 97,26 %
29.03.2023 05:00 5,8 C 5,5 C 1,9 C 89 % 1016,5 hPa 0,0 l/m 0,00 h 0,00 h 0 W/m 7,2 km/h (2 Bft) 97,03 %
29.03.2023 06:00 6,1 C 5,1 C 1,7 C 91 % 1016,2 hPa 0,0 l/m 0,00 h 0,00 h 0 W/m 8,3 km/h (2 Bft) 95,70 %
29.03.2023 07:00 6,0 C 5,5 C 2,0 C 93 % 1015,8 hPa 0,2 l/m 0,00 h 0,00 h 10 W/m 12,7 km/h (3 Bft) 99,21 %
29.03.2023 08:00 6,3 C 6,2 C 2,6 C 92 % 1015,8 hPa 0,0 l/m 0,00 h 0,00 h 26 W/m 10,3 km/h (2 Bft) 93,17 %
29.03.2023 09:00 7,0 C 7,0 C 3,2 C 90 % 1016,0 hPa 0,0 l/m 0,00 h 0,00 h 60 W/m 10,9 km/h (2 Bft) 98,35 %
29.03.2023 10:00 8,3 C 8,3 C 4,4 C 90 % 1016,0 hPa 0,0 l/m 0,00 h 0,00 h 98 W/m 10,7 km/h (2 Bft) 97,53 %
29.03.2023 11:00 9,7 C 10,6 C 6,2 C 88 % 1015,8 hPa 0,0 l/m 0,00 h 0,00 h 211 W/m 10,9 km/h (2 Bft) 96,65 %
29.03.2023 12:00 12,4 C 15,0 C 10,0 C 80 % 1015,5 hPa 0,0 l/m 0,83 h 0,00 h 414 W/m 17,0 km/h (3 Bft) 97,53 %
29.03.2023 13:00 13,8 C 14,3 C 10,0 C 75 % 1015,1 hPa 0,0 l/m 0,33 h 0,00 h 303 W/m 23,8 km/h (4 Bft) 97,51 %
29.03.2023 14:00 14,4 C 15,3 C 10,7 C 76 % 1014,7 hPa 0,0 l/m 0,53 h 0,00 h 333 W/m 22,2 km/h (4 Bft) 97,72 %
29.03.2023 15:00 14,9 C 15,1 C 10,8 C 75 % 1014,2 hPa 0,0 l/m 0,00 h 0,00 h 203 W/m 21,1 km/h (4 Bft) 96,73 %
29.03.2023 16:00 15,4 C 15,6 C 11,1 C 73 % 1013,4 hPa 0,0 l/m 0,00 h 0,00 h 191 W/m 14,3 km/h (3 Bft) 97,30 %
29.03.2023 17:00 16,0 C 15,7 C 11,1 C 73 % 1012,7 hPa 0,0 l/m 0,00 h 0,00 h 103 W/m 10,1 km/h (2 Bft) 99,20 %
29.03.2023 18:00 16,0 C 15,3 C 10,9 C 75 % 1011,7 hPa 0,0 l/m 0,03 h 0,00 h 68 W/m 8,6 km/h (2 Bft) 95,48 %
29.03.2023 19:00 15,4 C 14,3 C 10,1 C 76 % 1011,2 hPa 0,0 l/m 0,00 h 0,00 h 19 W/m 7,3 km/h (2 Bft) 98,01 %
29.03.2023 20:00 14,6 C 13,5 C 9,4 C 80 % 1010,9 hPa 0,0 l/m 0,00 h 0,00 h 0 W/m 7,7 km/h (2 Bft) 96,37 %
29.03.2023 21:00 14,1 C 13,0 C 8,9 C 84 % 1010,4 hPa 0,0 l/m 0,00 h 0,00 h 0 W/m 7,3 km/h (2 Bft) 94,05 %
29.03.2023 22:00 13,3 C 12,1 C 8,3 C 85 % 1009,8 hPa 0,0 l/m 0,00 h 0,00 h 0 W/m 7,4 km/h (2 Bft) 96,70 %
29.03.2023 23:00 12,5 C 11,7 C 7,8 C 87 % 1008,9 hPa 0,0 l/m 0,00 h 0,00 h 0 W/m 11,3 km/h (2 Bft) 97,69 %
30.03.2023 00:00 12,2 C 11,4 C 7,6 C 87 % 1008,5 hPa 0,0 l/m 0,00 h 0,00 h 0 W/m 11,7 km/h (2 Bft) 94,82 %
30.03.2023 01:00 11,8 C 11,1 C 7,2 C 87 % 1008,1 hPa 0,0 l/m 0,00 h 0,00 h 0 W/m 8,7 km/h (2 Bft) 99,37 %
30.03.2023 02:00 11,6 C 10,8 C 7,2 C 85 % 1007,5 hPa 0,0 l/m 0,00 h 0,00 h 0 W/m 10,4 km/h (2 Bft) 97,37 %
30.03.2023 03:00 11,6 C 11,2 C 7,3 C 84 % 1007,0 hPa 0,0 l/m 0,00 h 0,00 h 0 W/m 6,3 km/h (2 Bft) 96,37 %
30.03.2023 04:00 12,5 C 12,2 C 7,8 C 81 % 1006,6 hPa 0,0 l/m 0,00 h 0,00 h 0 W/m 9,3 km/h (2 Bft) 98,31 %
30.03.2023 05:00 14,2 C 13,5 C 8,9 C 74 % 1006,3 hPa 0,0 l/m 0,00 h 0,00 h 0 W/m 10,9 km/h (2 Bft) 97,35 %
30.03.2023 06:00 14,2 C 13,1 C 8,6 C 75 % 1005,9 hPa 0,0 l/m 0,00 h 0,00 h 0 W/m 9,7 km/h (2 Bft) 95,84 %
30.03.2023 07:00 14,3 C 13,3 C 8,9 C 76 % 1005,9 hPa 0,0 l/m 0,00 h 0,00 h 18 W/m 15,2 km/h (3 Bft) 99,50 %
30.03.2023 08:00 14,3 C 13,5 C 9,2 C 76 % 1006,2 hPa 0,0 l/m 0,00 h 0,00 h 39 W/m 20,6 km/h (4 Bft) 91,41 %
30.03.2023 09:00 14,2 C 13,5 C 9,2 C 78 % 1006,6 hPa 0,0 l/m 0,00 h 0,27 h 91 W/m 23,4 km/h (4 Bft) 98,93 %
30.03.2023 10:00 14,1 C 14,6 C 9,9 C 80 % 1007,1 hPa 0,0 l/m 0,17 h 0,00 h 179 W/m 21,3 km/h (4 Bft) 98,36 %
30.03.2023 11:00 13,9 C 13,4 C 9,3 C 80 % 1007,6 hPa 0,0 l/m 0,17 h 0,10 h 122 W/m 25,2 km/h (4 Bft) 95,87 %
30.03.2023 12:00 13,9 C 16,1 C 10,9 C 81 % 1008,1 hPa 0,0 l/m 0,30 h 0,00 h 407 W/m 25,5 km/h (4 Bft) 97,73 %
30.03.2023 13:00 15,3 C 15,9 C 11,1 C 76 % 1008,2 hPa 1,2 l/m 0,20 h 0,17 h 267 W/m 22,6 km/h (4 Bft) 99,14 %
30.03.2023 14:00 13,5 C 13,8 C 7,7 C 86 % 1008,4 hPa 0,4 l/m 0,10 h 0,47 h 186 W/m 20,6 km/h (4 Bft) 94,78 %
30.03.2023 15:00 15,2 C 18,0 C 9,1 C 81 % 1008,1 hPa 0,0 l/m 0,80 h 0,00 h 485 W/m 21,6 km/h (4 Bft) 97,43 %
30.03.2023 16:00 15,9 C 17,4 C 11,4 C 73 % 1007,9 hPa 0,0 l/m 0,60 h 0,00 h 391 W/m 25,1 km/h (4 Bft) 97,09 %
30.03.2023 17:00 14,3 C 14,6 C 8,7 C 84 % 1008,0 hPa 4,2 l/m 0,63 h 0,27 h 246 W/m 16,7 km/h (3 Bft) 97,07 %
30.03.2023 18:00 13,9 C 13,5 C 7,6 C 85 % 1008,0 hPa 0,6 l/m 0,43 h 0,40 h 102 W/m 18,0 km/h (3 Bft) 96,05 %
30.03.2023 19:00 12,3 C 11,4 C 7,1 C 92 % 1008,2 hPa 0,2 l/m 0,07 h 0,00 h 33 W/m 11,8 km/h (2 Bft) 98,79 %
30.03.2023 20:00 11,8 C 10,9 C 6,7 C 92 % 1008,3 hPa 0,0 l/m 0,00 h 0,00 h 4 W/m 9,8 km/h (2 Bft) 95,80 %
30.03.2023 21:00 12,0 C 11,3 C 6,5 C 90 % 1008,3 hPa 0,0 l/m 0,00 h 0,00 h 0 W/m 16,3 km/h (3 Bft) 98,65 %
30.03.2023 22:00 11,6 C 10,5 C 6,1 C 88 % 1008,0 hPa 0,0 l/m 0,00 h 0,00 h 0 W/m 13,8 km/h (3 Bft) 98,14 %
30.03.2023 23:00 10,8 C 9,8 C 6,1 C 89 % 1007,6 hPa 0,0 l/m 0,00 h 0,00 h 0 W/m 11,2 km/h (2 Bft) 95,41 %
31.03.2023 00:00 10,6 C 9,7 C 6,4 C 92 % 1006,9 hPa 0,0 l/m 0,00 h 0,00 h 0 W/m 10,6 km/h (2 Bft) 98,99 %
31.03.2023 01:00 10,4 C 9,4 C 6,2 C 92 % 1006,1 hPa 0,0 l/m 0,00 h 0,00 h 0 W/m 12,7 km/h (3 Bft) 96,87 %
31.03.2023 02:00 10,5 C 10,0 C 6,5 C 91 % 1005,1 hPa 0,0 l/m 0,00 h 0,13 h 0 W/m 8,8 km/h (2 Bft) 96,75 %
31.03.2023 03:00 10,7 C 9,9 C 6,3 C 92 % 1003,9 hPa 0,0 l/m 0,00 h 0,07 h 0 W/m 7,5 km/h (2 Bft) 97,87 %
31.03.2023 04:00 10,8 C 9,8 C 6,1 C 94 % 1002,5 hPa 0,4 l/m 0,00 h 0,90 h 0 W/m 21,2 km/h (4 Bft) 97,72 %
31.03.2023 05:00 10,7 C 10,0 C 6,1 C 94 % 1000,9 hPa 0,0 l/m 0,00 h 0,07 h 0 W/m 13,0 km/h (3 Bft) 96,17 %
31.03.2023 06:00 10,4 C 9,8 C 5,8 C 93 % 999,6 hPa 0,0 l/m 0,00 h 0,17 h 0 W/m 13,2 km/h (3 Bft) 97,88 %
31.03.2023 07:00 10,2 C 9,4 C 5,6 C 93 % 998,2 hPa 0,2 l/m 0,00 h 0,30 h 5 W/m 15,0 km/h (3 Bft) 98,17 %
31.03.2023 08:00 10,3 C 9,5 C 5,6 C 92 % 997,5 hPa 0,6 l/m 0,00 h 0,90 h 21 W/m 14,4 km/h (3 Bft) 96,23 %
31.03.2023 09:00 10,5 C 10,1 C 5,9 C 93 % 997,0 hPa 0,2 l/m 0,00 h 0,07 h 48 W/m 10,6 km/h (2 Bft) 96,86 %
31.03.2023 10:00 12,0 C 12,2 C 6,8 C 87 % 996,5 hPa 0,0 l/m 0,20 h 0,00 h 162 W/m 24,3 km/h (4 Bft) 99,16 %
31.03.2023 11:00 13,3 C 13,3 C 8,5 C 81 % 996,0 hPa 0,4 l/m 0,20 h 0,17 h 189 W/m 31,1 km/h (5 Bft) 94,59 %
31.03.2023 12:00 12,7 C 12,4 C 7,0 C 85 % 995,7 hPa 0,2 l/m 0,03 h 0,27 h 223 W/m 23,2 km/h (4 Bft) 98,86 %
31.03.2023 13:00 12,7 C 13,6 C 7,4 C 83 % 995,4 hPa 0,0 l/m 0,37 h 0,30 h 316 W/m 28,2 km/h (4 Bft) 98,18 %
31.03.2023 14:00 13,7 C 14,4 C 8,9 C 81 % 995,0 hPa 0,2 l/m 0,57 h 0,23 h 347 W/m 30,1 km/h (5 Bft) 95,66 %
31.03.2023 15:00 14,8 C 16,0 C 10,9 C 73 % 994,3 hPa 0,0 l/m 0,93 h 0,07 h 418 W/m 31,9 km/h (5 Bft) 96,83 %
31.03.2023 16:00 14,0 C 13,7 C 9,2 C 77 % 994,1 hPa 0,4 l/m 0,13 h 0,53 h 177 W/m 27,7 km/h (4 Bft) 98,43 %
31.03.2023 17:00 12,4 C 12,7 C 7,5 C 87 % 994,1 hPa 0,0 l/m 0,70 h 0,23 h 206 W/m 27,7 km/h (4 Bft) 94,90 %
31.03.2023 18:00 12,3 C 11,5 C 7,7 C 85 % 993,9 hPa 0,2 l/m 0,03 h 0,70 h 49 W/m 32,4 km/h (5 Bft) 99,02 %
31.03.2023 19:00 11,2 C 10,0 C 6,0 C 90 % 993,9 hPa 0,2 l/m 0,00 h 0,93 h 16 W/m 28,7 km/h (4 Bft) 98,15 %
31.03.2023 20:00 11,0 C 10,3 C 5,8 C 90 % 993,9 hPa 0,2 l/m 0,00 h 0,37 h 0 W/m 33,4 km/h (5 Bft) 80,03 %
31.03.2023 21:00 10,9 C 10,0 C 6,7 C 89 % 994,0 hPa 0,0 l/m 0,00 h 0,93 h 0 W/m 32,1 km/h (5 Bft) 92,46 %
31.03.2023 22:00 10,7 C 9,8 C 6,4 C 89 % 994,0 hPa 0,0 l/m 0,00 h 0,43 h 0 W/m 32,5 km/h (5 Bft) 80,05 %
31.03.2023 23:00 10,2 C 9,2 C 5,9 C 92 % 994,0 hPa 0,2 l/m 0,00 h 0,93 h 0 W/m 33,0 km/h (5 Bft) 76,71 %
01.04.2023 00:00 9,9 C 8,5 C 5,2 C 94 % 993,9 hPa 0,4 l/m 0,00 h 0,90 h 0 W/m 33,1 km/h (5 Bft) 109,32 %
01.04.2023 01:00 9,7 C 8,3 C 5,3 C 95 % 993,8 hPa 0,4 l/m 0,00 h 0,80 h 0 W/m 33,8 km/h (5 Bft) 97,04 %
01.04.2023 02:00 9,7 C 8,3 C 5,6 C 95 % 993,6 hPa 0,2 l/m 0,00 h 0,87 h 0 W/m 32,7 km/h (5 Bft) 95,81 %
01.04.2023 03:00 9,6 C 8,3 C 5,2 C 95 % 993,5 hPa 0,4 l/m 0,00 h 1,00 h 0 W/m 28,6 km/h (4 Bft) 97,82 %
01.04.2023 04:00 9,4 C 8,3 C 5,5 C 95 % 993,5 hPa 0,4 l/m 0,00 h 0,90 h 0 W/m 30,5 km/h (5 Bft) 96,16 %
01.04.2023 05:00 9,2 C 8,3 C 5,6 C 96 % 993,8 hPa 0,2 l/m 0,00 h 0,83 h 0 W/m 26,2 km/h (4 Bft) 97,07 %
01.04.2023 06:00 9,3 C 8,3 C 5,6 C 97 % 994,1 hPa 0,6 l/m 0,00 h 1,00 h 0 W/m 21,4 km/h (4 Bft) 94,97 %
01.04.2023 07:00 9,2 C 8,3 C 5,6 C 97 % 994,4 hPa 0,2 l/m 0,00 h 0,83 h 11 W/m 17,9 km/h (3 Bft) 95,30 %
01.04.2023 08:00 9,1 C 8,3 C 5,6 C 97 % 994,8 hPa 0,8 l/m 0,00 h 0,47 h 27 W/m 17,1 km/h (3 Bft) 95,52 %
01.04.2023 09:00 9,2 C 8,4 C 5,7 C 98 % 995,4 hPa 0,4 l/m 0,00 h 0,97 h 55 W/m 20,0 km/h (4 Bft) 97,36 %
01.04.2023 10:00 9,4 C 8,9 C 6,1 C 98 % 996,2 hPa 0,0 l/m 0,00 h 0,60 h 81 W/m 18,9 km/h (3 Bft) 95,27 %
01.04.2023 11:00 9,8 C 9,4 C 6,7 C 97 % 996,8 hPa 0,0 l/m 0,00 h 0,60 h 119 W/m 18,6 km/h (3 Bft) 95,87 %
01.04.2023 12:00 9,9 C 9,4 C 6,7 C 97 % 997,4 hPa 0,4 l/m 0,00 h 0,90 h 104 W/m 18,1 km/h (3 Bft) 98,06 %
01.04.2023 13:00 10,2 C 10,0 C 7,1 C 98 % 998,0 hPa 0,0 l/m 0,00 h 0,33 h 125 W/m 17,5 km/h (3 Bft) 98,30 %
01.04.2023 14:00 10,3 C 10,3 C 7,1 C 97 % 998,7 hPa 0,0 l/m 0,00 h 0,37 h 135 W/m 16,6 km/h (3 Bft) 95,09 %
01.04.2023 15:00 10,6 C 10,6 C 7,1 C 96 % 999,3 hPa 0,0 l/m 0,00 h 0,83 h 113 W/m 16,1 km/h (3 Bft) 98,79 %
01.04.2023 16:00 11,1 C 11,2 C 7,4 C 95 % 999,9 hPa 0,2 l/m 0,00 h 0,67 h 135 W/m 18,7 km/h (3 Bft) 97,58 %
01.04.2023 17:00 10,6 C 10,2 C 7,0 C 95 % 1000,5 hPa 0,2 l/m 0,00 h 0,40 h 77 W/m 18,4 km/h (3 Bft) 94,81 %
01.04.2023 18:00 10,3 C 9,5 C 6,7 C 96 % 1001,2 hPa 0,6 l/m 0,00 h 1,00 h 36 W/m 14,5 km/h (3 Bft) 99,20 %
01.04.2023 19:00 9,9 C 9,2 C 6,7 C 97 % 1002,0 hPa 1,0 l/m 0,00 h 0,87 h 15 W/m 11,6 km/h (2 Bft) 96,29 %
01.04.2023 20:00 9,5 C 8,9 C 6,3 C 98 % 1002,9 hPa 1,2 l/m 0,00 h 0,90 h 0 W/m 10,3 km/h (2 Bft) 97,11 %
01.04.2023 21:00 9,3 C 8,3 C 6,1 C 98 % 1003,6 hPa 0,8 l/m 0,00 h 0,53 h 0 W/m 9,8 km/h (2 Bft) 98,15 %
01.04.2023 22:00 9,4 C 8,7 C 6,3 C 98 % 1004,5 hPa 0,4 l/m 0,00 h 0,00 h 0 W/m 13,1 km/h (3 Bft) 96,47 %
01.04.2023 23:00 8,9 C 8,1 C 5,9 C 98 % 1005,8 hPa 0,0 l/m 0,00 h 0,10 h 0 W/m 17,5 km/h (3 Bft) 95,54 %
02.04.2023 00:00 8,1 C 7,4 C 5,2 C 98 % 1007,0 hPa 0,2 l/m 0,00 h 0,20 h 0 W/m 15,9 km/h (3 Bft) 94,30 %
02.04.2023 01:00 7,5 C 6,8 C 4,5 C 98 % 1008,1 hPa 0,2 l/m 0,00 h 0,00 h 0 W/m 18,6 km/h (3 Bft) 93,32 %
02.04.2023 02:00 6,8 C 6,2 C 4,0 C 98 % 1009,4 hPa 0,0 l/m 0,00 h 0,00 h 0 W/m 21,3 km/h (4 Bft) 73,36 %
02.04.2023 03:00 6,3 C 5,8 C 3,5 C 98 % 1010,4 hPa 0,0 l/m 0,00 h 0,00 h 0 W/m 21,2 km/h (4 Bft) 81,77 %
02.04.2023 04:00 5,8 C 5,4 C 2,9 C 98 % 1011,4 hPa 0,0 l/m 0,00 h 0,00 h 0 W/m 20,4 km/h (4 Bft) 96,01 %
02.04.2023 05:00 5,5 C 5,0 C 2,8 C 97 % 1012,6 hPa 0,0 l/m 0,00 h 0,00 h 0 W/m 20,6 km/h (4 Bft) 95,48 %
02.04.2023 06:00 5,1 C 4,5 C 2,3 C 95 % 1014,0 hPa 0,0 l/m 0,00 h 0,00 h 0 W/m 23,6 km/h (4 Bft) 98,03 %
02.04.2023 07:00 4,9 C 4,3 C 2,1 C 95 % 1015,3 hPa 0,0 l/m 0,00 h 0,03 h 6 W/m 19,2 km/h (3 Bft) 97,92 %
02.04.2023 08:00 4,3 C 3,9 C 1,8 C 95 % 1016,7 hPa 0,0 l/m 0,00 h 0,00 h 19 W/m 24,5 km/h (4 Bft) 96,31 %
02.04.2023 09:00 4,2 C 4,1 C 1,7 C 94 % 1017,9 hPa 0,0 l/m 0,00 h 0,00 h 49 W/m 21,0 km/h (4 Bft) 98,22 %
02.04.2023 10:00 4,5 C 4,5 C 2,0 C 91 % 1019,1 hPa 0,0 l/m 0,00 h 0,00 h 101 W/m 21,9 km/h (4 Bft) 94,94 %
02.04.2023 11:00 5,1 C 5,8 C 2,7 C 89 % 1020,3 hPa 0,0 l/m 0,00 h 0,00 h 179 W/m 20,7 km/h (4 Bft) 98,22 %
02.04.2023 12:00 6,1 C 7,2 C 3,6 C 85 % 1021,3 hPa 0,0 l/m 0,20 h 0,00 h 281 W/m 25,6 km/h (4 Bft) 96,72 %
02.04.2023 13:00 6,9 C 8,7 C 4,4 C 83 % 1022,2 hPa 0,0 l/m 0,43 h 0,00 h 356 W/m 23,5 km/h (4 Bft) 97,89 %
02.04.2023 14:00 7,1 C 8,6 C 4,0 C 80 % 1023,0 hPa 0,0 l/m 0,20 h 0,00 h 301 W/m 23,8 km/h (4 Bft) 96,57 %
02.04.2023 15:00 7,1 C 8,3 C 3,8 C 79 % 1023,8 hPa 0,0 l/m 0,20 h 0,00 h 265 W/m 23,3 km/h (4 Bft) 98,34 %
02.04.2023 16:00 7,7 C 10,6 C 4,7 C 77 % 1024,5 hPa 0,0 l/m 0,77 h 0,00 h 319 W/m 17,4 km/h (3 Bft) 95,64 %
02.04.2023 17:00 8,4 C 10,7 C 5,0 C 73 % 1024,8 hPa 0,0 l/m 0,57 h 0,00 h 283 W/m 14,0 km/h (3 Bft) 88,83 %
02.04.2023 18:00 8,3 C 9,4 C 4,7 C 72 % 1025,4 hPa 0,0 l/m 0,52 h 0,00 h 155 W/m 13,4 km/h (3 Bft) 91,74 %
02.04.2023 19:00 7,3 C 6,7 C 3,1 C 75 % 1026,2 hPa 0,0 l/m 0,00 h 0,00 h 29 W/m 12,5 km/h (3 Bft) 97,33 %
02.04.2023 20:00 6,1 C 5,1 C 1,9 C 76 % 1027,2 hPa 0,0 l/m 0,00 h 0,00 h 5 W/m 9,4 km/h (2 Bft) 96,69 %
02.04.2023 21:00 5,0 C 3,6 C 0,7 C 80 % 1028,0 hPa 0,0 l/m 0,00 h 0,00 h 0 W/m 3,6 km/h (1 Bft) 95,98 %
02.04.2023 22:00 3,8 C 1,8 C -0,8 C 83 % 1028,6 hPa 0,0 l/m 0,00 h 0,00 h 0 W/m 0,0 km/h (0 Bft) 97,59 %
02.04.2023 23:00 2,6 C 0,9 C -1,7 C 86 % 1029,1 hPa 0,0 l/m 0,00 h 0,00 h 0 W/m 0,1 km/h (0 Bft) 97,94 %
Min-Datum _ 28.03.23 28.03.23 28.03.23 28.03.23 01.04.23 - - - - 27.03.23 01.04.23
_ Min-Zeit 07:54 06:46 06:54 16:06 03:22 - - - - 06:46 00:02
Minimum _ -1,3 C -2,2 C -5,0 C 50 % 993,3 hPa - - - - 0,0 km/h (0 Bft) 11,11 %
Max-Datum _ 30.03.23 30.03.23 30.03.23 01.04.23 02.04.23 30.03.23 27.03.23 31.03.23 27.03.23 31.03.23 01.04.23
_ Max-Zeit 16:24 12:50 12:46 22:18 23:52 17:18 18:12 04:05 12:32 16:16 00:07
Maximum _ 16,4 C 22,2 C 13,9 C 99 % 1029,3 hPa 4,2 l/m 0,07 h 0,08 h 884 W/m 57,9 km/h
S-SO (7 Bft)
605,36 %
Durchschnitt _ 8,6 C 8,5 C 4,6 C 85 % 1011,8 hPa #20,8 l/m #24:13 h #29:02 h 182 W/m 16,0 km/h (3 Bft) 96,18 %
© 2023 W. Hausmann